sensor_id;sensor_type;location;lat;lon;timestamp;temperature;humidity
76751;SHT31;65216;51.090;-115.352;2023-12-20T00:02:17;22.50;29.78
76751;SHT31;65216;51.090;-115.352;2023-12-20T00:04:43;22.49;29.80
76751;SHT31;65216;51.090;-115.352;2023-12-20T00:07:10;22.49;29.87
76751;SHT31;65216;51.090;-115.352;2023-12-20T00:09:37;22.49;29.87
76751;SHT31;65216;51.090;-115.352;2023-12-20T00:12:04;22.49;29.87
76751;SHT31;65216;51.090;-115.352;2023-12-20T00:14:34;22.49;29.89
76751;SHT31;65216;51.090;-115.352;2023-12-20T00:17:01;22.49;29.92
76751;SHT31;65216;51.090;-115.352;2023-12-20T00:19:28;22.48;30.01
76751;SHT31;65216;51.090;-115.352;2023-12-20T00:21:55;22.48;30.09
76751;SHT31;65216;51.090;-115.352;2023-12-20T00:24:21;22.47;30.11
76751;SHT31;65216;51.090;-115.352;2023-12-20T00:26:48;22.44;30.12
76751;SHT31;65216;51.090;-115.352;2023-12-20T00:29:15;22.46;30.17
76751;SHT31;65216;51.090;-115.352;2023-12-20T00:31:44;22.46;30.20
76751;SHT31;65216;51.090;-115.352;2023-12-20T00:34:10;22.45;30.19
76751;SHT31;65216;51.090;-115.352;2023-12-20T00:36:37;22.45;30.21
76751;SHT31;65216;51.090;-115.352;2023-12-20T00:39:04;22.45;30.29
76751;SHT31;65216;51.090;-115.352;2023-12-20T00:41:32;22.46;30.32
76751;SHT31;65216;51.090;-115.352;2023-12-20T00:43:59;22.43;30.39
76751;SHT31;65216;51.090;-115.352;2023-12-20T00:46:25;22.43;30.44
76751;SHT31;65216;51.090;-115.352;2023-12-20T00:48:52;22.43;30.50
76751;SHT31;65216;51.090;-115.352;2023-12-20T00:51:19;22.42;30.51
76751;SHT31;65216;51.090;-115.352;2023-12-20T00:53:46;22.40;30.65
76751;SHT31;65216;51.090;-115.352;2023-12-20T00:56:14;22.41;30.70
76751;SHT31;65216;51.090;-115.352;2023-12-20T00:58:41;22.43;30.72
76751;SHT31;65216;51.090;-115.352;2023-12-20T01:01:11;22.44;30.73
76751;SHT31;65216;51.090;-115.352;2023-12-20T01:03:38;22.44;30.83
76751;SHT31;65216;51.090;-115.352;2023-12-20T01:06:05;22.44;30.85
76751;SHT31;65216;51.090;-115.352;2023-12-20T01:08:32;22.44;30.82
76751;SHT31;65216;51.090;-115.352;2023-12-20T01:11:00;22.43;30.85
76751;SHT31;65216;51.090;-115.352;2023-12-20T01:13:31;22.42;30.95
76751;SHT31;65216;51.090;-115.352;2023-12-20T01:15:57;22.42;31.08
76751;SHT31;65216;51.090;-115.352;2023-12-20T01:18:24;22.41;31.17
76751;SHT31;65216;51.090;-115.352;2023-12-20T01:20:52;22.43;31.28
76751;SHT31;65216;51.090;-115.352;2023-12-20T01:23:18;22.43;31.38
76751;SHT31;65216;51.090;-115.352;2023-12-20T01:25:45;22.43;31.53
76751;SHT31;65216;51.090;-115.352;2023-12-20T01:28:12;22.44;31.57
76751;SHT31;65216;51.090;-115.352;2023-12-20T01:30:39;22.44;31.63
76751;SHT31;65216;51.090;-115.352;2023-12-20T01:33:06;22.44;31.71
76751;SHT31;65216;51.090;-115.352;2023-12-20T01:35:35;22.45;31.80
76751;SHT31;65216;51.090;-115.352;2023-12-20T01:38:02;22.45;31.84
76751;SHT31;65216;51.090;-115.352;2023-12-20T01:40:29;22.45;31.86
76751;SHT31;65216;51.090;-115.352;2023-12-20T01:43:00;22.45;31.94
76751;SHT31;65216;51.090;-115.352;2023-12-20T01:45:30;22.45;32.04
76751;SHT31;65216;51.090;-115.352;2023-12-20T01:47:57;22.47;32.12
76751;SHT31;65216;51.090;-115.352;2023-12-20T01:50:28;22.48;32.31
76751;SHT31;65216;51.090;-115.352;2023-12-20T01:52:57;22.48;32.27
76751;SHT31;65216;51.090;-115.352;2023-12-20T01:55:27;22.47;32.34
76751;SHT31;65216;51.090;-115.352;2023-12-20T01:57:58;22.45;32.41
76751;SHT31;65216;51.090;-115.352;2023-12-20T02:00:28;22.44;32.50
76751;SHT31;65216;51.090;-115.352;2023-12-20T02:02:56;22.45;32.56
76751;SHT31;65216;51.090;-115.352;2023-12-20T02:05:28;22.48;32.56
76751;SHT31;65216;51.090;-115.352;2023-12-20T02:07:57;22.47;32.59
76751;SHT31;65216;51.090;-115.352;2023-12-20T02:10:24;22.47;32.68
76751;SHT31;65216;51.090;-115.352;2023-12-20T02:12:51;22.45;32.78
76751;SHT31;65216;51.090;-115.352;2023-12-20T02:15:18;22.44;32.81
76751;SHT31;65216;51.090;-115.352;2023-12-20T02:17:46;22.46;32.87
76751;SHT31;65216;51.090;-115.352;2023-12-20T02:20:14;22.45;32.83
76751;SHT31;65216;51.090;-115.352;2023-12-20T02:22:44;22.45;32.83
76751;SHT31;65216;51.090;-115.352;2023-12-20T02:25:12;22.44;32.88
76751;SHT31;65216;51.090;-115.352;2023-12-20T02:27:39;22.43;32.93
76751;SHT31;65216;51.090;-115.352;2023-12-20T02:30:07;22.41;32.96
76751;SHT31;65216;51.090;-115.352;2023-12-20T02:32:38;22.39;33.06
76751;SHT31;65216;51.090;-115.352;2023-12-20T02:35:04;22.40;33.10
76751;SHT31;65216;51.090;-115.352;2023-12-20T02:37:32;22.42;33.04
76751;SHT31;65216;51.090;-115.352;2023-12-20T02:39:59;22.43;33.00
76751;SHT31;65216;51.090;-115.352;2023-12-20T02:42:26;22.43;33.05
76751;SHT31;65216;51.090;-115.352;2023-12-20T02:44:53;22.42;33.10
76751;SHT31;65216;51.090;-115.352;2023-12-20T02:47:20;22.43;33.08
76751;SHT31;65216;51.090;-115.352;2023-12-20T02:49:47;22.43;33.05
76751;SHT31;65216;51.090;-115.352;2023-12-20T02:52:14;22.43;33.10
76751;SHT31;65216;51.090;-115.352;2023-12-20T02:54:41;22.43;33.11
76751;SHT31;65216;51.090;-115.352;2023-12-20T02:57:08;22.42;33.15
76751;SHT31;65216;51.090;-115.352;2023-12-20T02:59:35;22.39;33.20
76751;SHT31;65216;51.090;-115.352;2023-12-20T03:02:02;22.39;33.20
76751;SHT31;65216;51.090;-115.352;2023-12-20T03:04:29;22.41;33.18
76751;SHT31;65216;51.090;-115.352;2023-12-20T03:06:59;22.42;33.08
76751;SHT31;65216;51.090;-115.352;2023-12-20T03:09:25;22.44;33.01
76751;SHT31;65216;51.090;-115.352;2023-12-20T03:11:52;22.44;32.98
76751;SHT31;65216;51.090;-115.352;2023-12-20T03:14:19;22.45;32.99
76751;SHT31;65216;51.090;-115.352;2023-12-20T03:16:54;22.46;33.00
76751;SHT31;65216;51.090;-115.352;2023-12-20T03:19:21;22.45;33.00
76751;SHT31;65216;51.090;-115.352;2023-12-20T03:21:50;22.44;32.98
76751;SHT31;65216;51.090;-115.352;2023-12-20T03:24:21;22.44;32.92
76751;SHT31;65216;51.090;-115.352;2023-12-20T03:26:48;22.44;32.89
76751;SHT31;65216;51.090;-115.352;2023-12-20T03:29:15;22.45;32.84
76751;SHT31;65216;51.090;-115.352;2023-12-20T03:31:46;22.45;32.76
76751;SHT31;65216;51.090;-115.352;2023-12-20T03:34:12;22.45;32.66
76751;SHT31;65216;51.090;-115.352;2023-12-20T03:36:40;22.45;32.60
76751;SHT31;65216;51.090;-115.352;2023-12-20T03:39:07;22.44;32.53
76751;SHT31;65216;51.090;-115.352;2023-12-20T03:44:04;22.47;32.34
76751;SHT31;65216;51.090;-115.352;2023-12-20T03:46:31;22.45;32.25
76751;SHT31;65216;51.090;-115.352;2023-12-20T03:48:58;22.43;32.15
76751;SHT31;65216;51.090;-115.352;2023-12-20T03:51:24;22.41;32.20
76751;SHT31;65216;51.090;-115.352;2023-12-20T03:53:51;22.42;32.10
76751;SHT31;65216;51.090;-115.352;2023-12-20T03:56:18;22.42;32.07
76751;SHT31;65216;51.090;-115.352;2023-12-20T03:58:45;22.42;32.08
76751;SHT31;65216;51.090;-115.352;2023-12-20T04:01:11;22.41;31.98
76751;SHT31;65216;51.090;-115.352;2023-12-20T04:03:39;22.39;31.91
76751;SHT31;65216;51.090;-115.352;2023-12-20T04:06:05;22.39;31.83
76751;SHT31;65216;51.090;-115.352;2023-12-20T04:08:32;22.40;31.80
76751;SHT31;65216;51.090;-115.352;2023-12-20T04:10:59;22.39;31.77
76751;SHT31;65216;51.090;-115.352;2023-12-20T04:13:26;22.37;31.71
76751;SHT31;65216;51.090;-115.352;2023-12-20T04:15:52;22.36;31.75
76751;SHT31;65216;51.090;-115.352;2023-12-20T04:18:19;22.34;31.67
76751;SHT31;65216;51.090;-115.352;2023-12-20T04:20:46;22.34;31.59
76751;SHT31;65216;51.090;-115.352;2023-12-20T04:23:13;22.34;31.52
76751;SHT31;65216;51.090;-115.352;2023-12-20T04:25:43;22.35;31.46
76751;SHT31;65216;51.090;-115.352;2023-12-20T04:28:09;22.33;31.35
76751;SHT31;65216;51.090;-115.352;2023-12-20T04:30:41;22.32;31.33
76751;SHT31;65216;51.090;-115.352;2023-12-20T04:33:08;22.31;31.26
76751;SHT31;65216;51.090;-115.352;2023-12-20T04:35:37;22.32;31.17
76751;SHT31;65216;51.090;-115.352;2023-12-20T04:38:06;22.30;31.12
76751;SHT31;65216;51.090;-115.352;2023-12-20T04:40:33;22.29;31.05
76751;SHT31;65216;51.090;-115.352;2023-12-20T04:43:02;22.30;30.97
76751;SHT31;65216;51.090;-115.352;2023-12-20T04:45:29;22.30;30.87
76751;SHT31;65216;51.090;-115.352;2023-12-20T04:47:56;22.28;30.79
76751;SHT31;65216;51.090;-115.352;2023-12-20T04:50:23;22.27;30.74
76751;SHT31;65216;51.090;-115.352;2023-12-20T04:52:50;22.28;30.65
76751;SHT31;65216;51.090;-115.352;2023-12-20T04:55:17;22.29;30.51
76751;SHT31;65216;51.090;-115.352;2023-12-20T04:57:47;22.28;30.42
76751;SHT31;65216;51.090;-115.352;2023-12-20T05:00:17;22.26;30.38
76751;SHT31;65216;51.090;-115.352;2023-12-20T05:02:44;22.24;30.30
76751;SHT31;65216;51.090;-115.352;2023-12-20T05:05:11;22.24;30.16
76751;SHT31;65216;51.090;-115.352;2023-12-20T05:07:38;22.23;30.09
76751;SHT31;65216;51.090;-115.352;2023-12-20T05:10:04;22.22;30.01
76751;SHT31;65216;51.090;-115.352;2023-12-20T05:12:33;22.23;29.94
76751;SHT31;65216;51.090;-115.352;2023-12-20T05:15:00;22.24;29.87
76751;SHT31;65216;51.090;-115.352;2023-12-20T05:17:27;22.24;29.71
76751;SHT31;65216;51.090;-115.352;2023-12-20T05:19:54;22.23;29.64
76751;SHT31;65216;51.090;-115.352;2023-12-20T05:22:21;22.23;29.58
76751;SHT31;65216;51.090;-115.352;2023-12-20T05:24:50;22.23;29.49
76751;SHT31;65216;51.090;-115.352;2023-12-20T05:27:19;22.23;29.39
76751;SHT31;65216;51.090;-115.352;2023-12-20T05:29:47;22.25;29.30
76751;SHT31;65216;51.090;-115.352;2023-12-20T05:32:16;22.25;29.20
76751;SHT31;65216;51.090;-115.352;2023-12-20T05:34:45;22.25;29.12
76751;SHT31;65216;51.090;-115.352;2023-12-20T05:37:12;22.24;29.02
76751;SHT31;65216;51.090;-115.352;2023-12-20T05:39:39;22.24;28.99
76751;SHT31;65216;51.090;-115.352;2023-12-20T05:42:08;22.22;28.91
76751;SHT31;65216;51.090;-115.352;2023-12-20T05:44:35;22.24;28.83
76751;SHT31;65216;51.090;-115.352;2023-12-20T05:47:01;22.24;28.73
76751;SHT31;65216;51.090;-115.352;2023-12-20T05:49:29;22.23;28.70
76751;SHT31;65216;51.090;-115.352;2023-12-20T05:52:00;22.23;28.66
76751;SHT31;65216;51.090;-115.352;2023-12-20T05:54:26;22.21;28.58
76751;SHT31;65216;51.090;-115.352;2023-12-20T05:56:53;22.21;28.56
76751;SHT31;65216;51.090;-115.352;2023-12-20T05:59:20;22.22;28.50
76751;SHT31;65216;51.090;-115.352;2023-12-20T06:01:49;22.20;28.41
76751;SHT31;65216;51.090;-115.352;2023-12-20T06:04:20;22.20;28.39
76751;SHT31;65216;51.090;-115.352;2023-12-20T06:06:47;22.21;28.30
76751;SHT31;65216;51.090;-115.352;2023-12-20T06:09:14;22.21;28.25
76751;SHT31;65216;51.090;-115.352;2023-12-20T06:11:40;22.20;28.19
76751;SHT31;65216;51.090;-115.352;2023-12-20T06:14:07;22.21;28.11
76751;SHT31;65216;51.090;-115.352;2023-12-20T06:16:34;22.20;28.09
76751;SHT31;65216;51.090;-115.352;2023-12-20T06:19:01;22.19;28.01
76751;SHT31;65216;51.090;-115.352;2023-12-20T06:21:27;22.19;28.00
76751;SHT31;65216;51.090;-115.352;2023-12-20T06:23:54;22.19;27.93
76751;SHT31;65216;51.090;-115.352;2023-12-20T06:26:21;22.19;27.86
76751;SHT31;65216;51.090;-115.352;2023-12-20T06:28:48;22.19;27.82
76751;SHT31;65216;51.090;-115.352;2023-12-20T06:31:15;22.19;27.80
76751;SHT31;65216;51.090;-115.352;2023-12-20T06:33:42;22.19;27.77
76751;SHT31;65216;51.090;-115.352;2023-12-20T06:36:12;22.19;27.70
76751;SHT31;65216;51.090;-115.352;2023-12-20T06:38:40;22.20;27.63
76751;SHT31;65216;51.090;-115.352;2023-12-20T06:41:07;22.19;27.61
76751;SHT31;65216;51.090;-115.352;2023-12-20T06:43:34;22.18;27.58
76751;SHT31;65216;51.090;-115.352;2023-12-20T06:46:04;22.18;27.53
76751;SHT31;65216;51.090;-115.352;2023-12-20T06:48:30;22.16;27.49
76751;SHT31;65216;51.090;-115.352;2023-12-20T06:50:59;22.15;27.50
76751;SHT31;65216;51.090;-115.352;2023-12-20T06:53:30;22.16;27.43
76751;SHT31;65216;51.090;-115.352;2023-12-20T06:55:57;22.17;27.39
76751;SHT31;65216;51.090;-115.352;2023-12-20T06:58:24;22.17;27.34
76751;SHT31;65216;51.090;-115.352;2023-12-20T07:00:50;22.17;27.30
76751;SHT31;65216;51.090;-115.352;2023-12-20T07:03:17;22.17;27.28
76751;SHT31;65216;51.090;-115.352;2023-12-20T07:05:44;22.17;27.24
76751;SHT31;65216;51.090;-115.352;2023-12-20T07:08:11;22.16;27.20
76751;SHT31;65216;51.090;-115.352;2023-12-20T07:10:39;22.16;27.18
76751;SHT31;65216;51.090;-115.352;2023-12-20T07:13:07;22.15;27.15
76751;SHT31;65216;51.090;-115.352;2023-12-20T07:15:34;22.16;27.11
76751;SHT31;65216;51.090;-115.352;2023-12-20T07:18:02;22.16;27.08
76751;SHT31;65216;51.090;-115.352;2023-12-20T07:20:30;22.14;27.05
76751;SHT31;65216;51.090;-115.352;2023-12-20T07:22:57;22.14;27.01
76751;SHT31;65216;51.090;-115.352;2023-12-20T07:25:27;22.13;27.00
76751;SHT31;65216;51.090;-115.352;2023-12-20T07:27:53;22.13;26.95
76751;SHT31;65216;51.090;-115.352;2023-12-20T07:30:20;22.13;26.90
76751;SHT31;65216;51.090;-115.352;2023-12-20T07:32:47;22.14;26.90
76751;SHT31;65216;51.090;-115.352;2023-12-20T07:35:14;22.15;26.88
76751;SHT31;65216;51.090;-115.352;2023-12-20T07:37:42;22.15;26.84
76751;SHT31;65216;51.090;-115.352;2023-12-20T07:40:08;22.15;26.84
76751;SHT31;65216;51.090;-115.352;2023-12-20T07:42:36;22.15;26.81
76751;SHT31;65216;51.090;-115.352;2023-12-20T07:45:05;22.15;26.77
76751;SHT31;65216;51.090;-115.352;2023-12-20T07:47:32;22.14;26.72
76751;SHT31;65216;51.090;-115.352;2023-12-20T07:49:59;22.13;26.70
76751;SHT31;65216;51.090;-115.352;2023-12-20T07:52:26;22.12;26.69
76751;SHT31;65216;51.090;-115.352;2023-12-20T07:54:52;22.12;26.66
76751;SHT31;65216;51.090;-115.352;2023-12-20T07:57:19;22.14;26.64
76751;SHT31;65216;51.090;-115.352;2023-12-20T07:59:46;22.14;26.60
76751;SHT31;65216;51.090;-115.352;2023-12-20T08:02:16;22.15;26.60
76751;SHT31;65216;51.090;-115.352;2023-12-20T08:04:43;22.15;26.58
76751;SHT31;65216;51.090;-115.352;2023-12-20T08:07:10;22.14;26.55
76751;SHT31;65216;51.090;-115.352;2023-12-20T08:09:36;22.13;26.51
76751;SHT31;65216;51.090;-115.352;2023-12-20T08:12:03;22.12;26.52
76751;SHT31;65216;51.090;-115.352;2023-12-20T08:14:30;22.12;26.52
76751;SHT31;65216;51.090;-115.352;2023-12-20T08:16:57;22.13;26.49
76751;SHT31;65216;51.090;-115.352;2023-12-20T08:19:24;22.14;26.48
76751;SHT31;65216;51.090;-115.352;2023-12-20T08:21:51;22.15;26.40
76751;SHT31;65216;51.090;-115.352;2023-12-20T08:24:18;22.16;26.40
76751;SHT31;65216;51.090;-115.352;2023-12-20T08:26:44;22.17;26.34
76751;SHT31;65216;51.090;-115.352;2023-12-20T08:29:15;22.19;26.30
76751;SHT31;65216;51.090;-115.352;2023-12-20T08:31:41;22.20;26.24
76751;SHT31;65216;51.090;-115.352;2023-12-20T08:34:08;22.20;26.28
76751;SHT31;65216;51.090;-115.352;2023-12-20T08:36:37;22.19;26.22
76751;SHT31;65216;51.090;-115.352;2023-12-20T08:39:04;22.18;26.20
76751;SHT31;65216;51.090;-115.352;2023-12-20T08:41:32;22.18;26.21
76751;SHT31;65216;51.090;-115.352;2023-12-20T08:44:00;22.17;26.19
76751;SHT31;65216;51.090;-115.352;2023-12-20T08:46:30;22.16;26.17
76751;SHT31;65216;51.090;-115.352;2023-12-20T08:48:57;22.15;26.18
76751;SHT31;65216;51.090;-115.352;2023-12-20T08:51:23;22.15;26.13
76751;SHT31;65216;51.090;-115.352;2023-12-20T08:53:54;22.16;26.14
76751;SHT31;65216;51.090;-115.352;2023-12-20T08:56:21;22.15;26.10
76751;SHT31;65216;51.090;-115.352;2023-12-20T08:58:52;22.15;26.10
76751;SHT31;65216;51.090;-115.352;2023-12-20T09:01:19;22.16;26.05
76751;SHT31;65216;51.090;-115.352;2023-12-20T09:03:46;22.17;26.06
76751;SHT31;65216;51.090;-115.352;2023-12-20T09:06:12;22.15;26.04
76751;SHT31;65216;51.090;-115.352;2023-12-20T09:08:39;22.17;26.05
76751;SHT31;65216;51.090;-115.352;2023-12-20T09:11:06;22.17;26.03
76751;SHT31;65216;51.090;-115.352;2023-12-20T09:13:33;22.17;26.04
76751;SHT31;65216;51.090;-115.352;2023-12-20T09:16:00;22.17;26.00
76751;SHT31;65216;51.090;-115.352;2023-12-20T09:18:28;22.17;26.01
76751;SHT31;65216;51.090;-115.352;2023-12-20T09:20:55;22.17;26.02
76751;SHT31;65216;51.090;-115.352;2023-12-20T09:23:22;22.17;26.02
76751;SHT31;65216;51.090;-115.352;2023-12-20T09:25:48;22.17;26.04
76751;SHT31;65216;51.090;-115.352;2023-12-20T09:28:15;22.17;26.08
76751;SHT31;65216;51.090;-115.352;2023-12-20T09:30:42;22.17;26.10
76751;SHT31;65216;51.090;-115.352;2023-12-20T09:33:11;22.15;26.10
76751;SHT31;65216;51.090;-115.352;2023-12-20T09:35:38;22.15;26.12
76751;SHT31;65216;51.090;-115.352;2023-12-20T09:38:04;22.16;26.10
76751;SHT31;65216;51.090;-115.352;2023-12-20T09:40:32;22.16;26.11
76751;SHT31;65216;51.090;-115.352;2023-12-20T09:43:03;22.15;26.13
76751;SHT31;65216;51.090;-115.352;2023-12-20T09:45:35;22.14;26.18
76751;SHT31;65216;51.090;-115.352;2023-12-20T09:48:06;22.16;26.15
76751;SHT31;65216;51.090;-115.352;2023-12-20T09:50:37;22.17;26.11
76751;SHT31;65216;51.090;-115.352;2023-12-20T09:53:05;22.18;26.14
76751;SHT31;65216;51.090;-115.352;2023-12-20T09:55:40;22.17;26.11
76751;SHT31;65216;51.090;-115.352;2023-12-20T09:58:10;22.16;26.12
76751;SHT31;65216;51.090;-115.352;2023-12-20T10:00:37;22.16;26.16
76751;SHT31;65216;51.090;-115.352;2023-12-20T10:03:04;22.15;26.14
76751;SHT31;65216;51.090;-115.352;2023-12-20T10:05:33;22.14;26.18
76751;SHT31;65216;51.090;-115.352;2023-12-20T10:08:01;22.16;26.11
76751;SHT31;65216;51.090;-115.352;2023-12-20T10:10:28;22.16;26.12
76751;SHT31;65216;51.090;-115.352;2023-12-20T10:13:02;22.15;26.10
76751;SHT31;65216;51.090;-115.352;2023-12-20T10:15:34;22.14;26.11
76751;SHT31;65216;51.090;-115.352;2023-12-20T10:18:02;22.13;26.11
76751;SHT31;65216;51.090;-115.352;2023-12-20T10:20:33;22.13;26.10
76751;SHT31;65216;51.090;-115.352;2023-12-20T10:23:02;22.12;26.11
76751;SHT31;65216;51.090;-115.352;2023-12-20T10:25:29;22.12;26.09
76751;SHT31;65216;51.090;-115.352;2023-12-20T10:30:45;22.09;26.10
76751;SHT31;65216;51.090;-115.352;2023-12-20T10:33:11;22.08;26.10
76751;SHT31;65216;51.090;-115.352;2023-12-20T10:35:39;22.08;26.10
76751;SHT31;65216;51.090;-115.352;2023-12-20T10:38:08;22.09;26.11
76751;SHT31;65216;51.090;-115.352;2023-12-20T10:40:38;22.09;26.09
76751;SHT31;65216;51.090;-115.352;2023-12-20T10:43:05;22.09;26.08
76751;SHT31;65216;51.090;-115.352;2023-12-20T10:45:33;22.09;26.10
76751;SHT31;65216;51.090;-115.352;2023-12-20T10:48:03;22.11;26.07
76751;SHT31;65216;51.090;-115.352;2023-12-20T10:50:31;22.11;26.02
76751;SHT31;65216;51.090;-115.352;2023-12-20T10:52:58;22.11;26.01
76751;SHT31;65216;51.090;-115.352;2023-12-20T10:55:28;22.11;26.00
76751;SHT31;65216;51.090;-115.352;2023-12-20T10:57:59;22.11;26.00
76751;SHT31;65216;51.090;-115.352;2023-12-20T11:00:34;22.11;26.00
76751;SHT31;65216;51.090;-115.352;2023-12-20T11:03:07;22.11;26.00
76751;SHT31;65216;51.090;-115.352;2023-12-20T11:08:39;22.10;26.02
76751;SHT31;65216;51.090;-115.352;2023-12-20T11:11:29;22.10;26.00
76751;SHT31;65216;51.090;-115.352;2023-12-20T11:14:07;22.09;25.99
76751;SHT31;65216;51.090;-115.352;2023-12-20T11:16:43;22.09;26.02
76751;SHT31;65216;51.090;-115.352;2023-12-20T11:19:10;22.09;26.01
76751;SHT31;65216;51.090;-115.352;2023-12-20T11:21:39;22.09;26.05
76751;SHT31;65216;51.090;-115.352;2023-12-20T11:24:07;22.09;26.12
76751;SHT31;65216;51.090;-115.352;2023-12-20T11:26:35;22.10;26.21
76751;SHT31;65216;51.090;-115.352;2023-12-20T11:35:00;22.11;26.20
76751;SHT31;65216;51.090;-115.352;2023-12-20T11:37:44;22.11;26.19
76751;SHT31;65216;51.090;-115.352;2023-12-20T11:40:15;22.10;26.35
76751;SHT31;65216;51.090;-115.352;2023-12-20T11:42:44;22.09;26.55
76751;SHT31;65216;51.090;-115.352;2023-12-20T11:45:15;22.10;26.68
76751;SHT31;65216;51.090;-115.352;2023-12-20T11:47:47;22.09;26.76
76751;SHT31;65216;51.090;-115.352;2023-12-20T11:50:19;22.08;27.00
76751;SHT31;65216;51.090;-115.352;2023-12-20T11:52:48;22.09;27.25
76751;SHT31;65216;51.090;-115.352;2023-12-20T11:55:23;22.09;27.27
76751;SHT31;65216;51.090;-115.352;2023-12-20T11:57:51;22.09;27.45
76751;SHT31;65216;51.090;-115.352;2023-12-20T12:00:18;22.10;27.58
76751;SHT31;65216;51.090;-115.352;2023-12-20T12:02:58;22.10;27.53
76751;SHT31;65216;51.090;-115.352;2023-12-20T12:05:27;22.11;27.58
76751;SHT31;65216;51.090;-115.352;2023-12-20T12:07:56;22.11;27.47
76751;SHT31;65216;51.090;-115.352;2023-12-20T12:10:22;22.10;27.62
76751;SHT31;65216;51.090;-115.352;2023-12-20T12:12:49;22.09;27.92
76751;SHT31;65216;51.090;-115.352;2023-12-20T12:15:16;22.07;27.97
76751;SHT31;65216;51.090;-115.352;2023-12-20T12:20:34;22.05;27.96
76751;SHT31;65216;51.090;-115.352;2023-12-20T12:23:03;22.06;27.93
76751;SHT31;65216;51.090;-115.352;2023-12-20T12:25:34;22.07;27.65
76751;SHT31;65216;51.090;-115.352;2023-12-20T12:28:02;22.07;27.59
76751;SHT31;65216;51.090;-115.352;2023-12-20T12:30:30;22.06;27.46
76751;SHT31;65216;51.090;-115.352;2023-12-20T12:32:57;22.08;27.37
76751;SHT31;65216;51.090;-115.352;2023-12-20T12:35:24;22.10;27.34
76751;SHT31;65216;51.090;-115.352;2023-12-20T12:37:51;22.10;27.26
76751;SHT31;65216;51.090;-115.352;2023-12-20T12:40:18;22.10;27.18
76751;SHT31;65216;51.090;-115.352;2023-12-20T12:42:45;22.10;27.09
76751;SHT31;65216;51.090;-115.352;2023-12-20T12:45:12;22.10;26.94
76751;SHT31;65216;51.090;-115.352;2023-12-20T12:47:39;22.09;26.93
76751;SHT31;65216;51.090;-115.352;2023-12-20T12:50:06;22.09;26.90
76751;SHT31;65216;51.090;-115.352;2023-12-20T12:52:34;22.08;26.85
76751;SHT31;65216;51.090;-115.352;2023-12-20T12:55:01;22.08;26.80
76751;SHT31;65216;51.090;-115.352;2023-12-20T12:57:28;22.09;26.76
76751;SHT31;65216;51.090;-115.352;2023-12-20T12:59:55;22.08;26.70
76751;SHT31;65216;51.090;-115.352;2023-12-20T13:02:26;22.09;26.67
76751;SHT31;65216;51.090;-115.352;2023-12-20T13:04:52;22.09;26.61
76751;SHT31;65216;51.090;-115.352;2023-12-20T13:07:19;22.09;26.57
76751;SHT31;65216;51.090;-115.352;2023-12-20T13:09:46;22.09;26.51
76751;SHT31;65216;51.090;-115.352;2023-12-20T13:12:15;22.09;26.48
76751;SHT31;65216;51.090;-115.352;2023-12-20T13:14:42;22.09;26.42
76751;SHT31;65216;51.090;-115.352;2023-12-20T13:17:08;22.09;26.41
76751;SHT31;65216;51.090;-115.352;2023-12-20T13:19:36;22.09;26.39
76751;SHT31;65216;51.090;-115.352;2023-12-20T13:22:02;22.10;26.31
76751;SHT31;65216;51.090;-115.352;2023-12-20T13:24:29;22.09;26.30
76751;SHT31;65216;51.090;-115.352;2023-12-20T13:26:57;22.09;26.29
76751;SHT31;65216;51.090;-115.352;2023-12-20T13:29:24;22.08;26.21
76751;SHT31;65216;51.090;-115.352;2023-12-20T13:31:54;22.07;26.21
76751;SHT31;65216;51.090;-115.352;2023-12-20T13:34:21;22.07;26.21
76751;SHT31;65216;51.090;-115.352;2023-12-20T13:36:51;22.07;26.18
76751;SHT31;65216;51.090;-115.352;2023-12-20T13:39:17;22.07;26.18
76751;SHT31;65216;51.090;-115.352;2023-12-20T13:41:44;22.05;26.12
76751;SHT31;65216;51.090;-115.352;2023-12-20T13:44:11;22.05;26.12
76751;SHT31;65216;51.090;-115.352;2023-12-20T13:46:41;22.05;26.11
76751;SHT31;65216;51.090;-115.352;2023-12-20T13:49:08;22.05;26.10
76751;SHT31;65216;51.090;-115.352;2023-12-20T13:51:34;22.06;26.04
76751;SHT31;65216;51.090;-115.352;2023-12-20T13:54:01;22.05;26.02
76751;SHT31;65216;51.090;-115.352;2023-12-20T13:56:28;22.04;26.00
76751;SHT31;65216;51.090;-115.352;2023-12-20T13:58:55;22.05;26.00
76751;SHT31;65216;51.090;-115.352;2023-12-20T14:01:23;22.04;26.00
76751;SHT31;65216;51.090;-115.352;2023-12-20T14:03:50;22.04;25.99
76751;SHT31;65216;51.090;-115.352;2023-12-20T14:06:17;22.04;25.99
76751;SHT31;65216;51.090;-115.352;2023-12-20T14:08:44;22.02;25.93
76751;SHT31;65216;51.090;-115.352;2023-12-20T14:11:11;22.01;25.93
76751;SHT31;65216;51.090;-115.352;2023-12-20T14:13:40;22.02;25.94
76751;SHT31;65216;51.090;-115.352;2023-12-20T14:16:08;22.03;25.89
76751;SHT31;65216;51.090;-115.352;2023-12-20T14:18:36;22.03;25.87
76751;SHT31;65216;51.090;-115.352;2023-12-20T14:21:05;22.03;25.85
76751;SHT31;65216;51.090;-115.352;2023-12-20T14:23:35;22.04;25.82
76751;SHT31;65216;51.090;-115.352;2023-12-20T14:28:30;22.03;25.79
76751;SHT31;65216;51.090;-115.352;2023-12-20T14:30:57;22.04;25.79
76751;SHT31;65216;51.090;-115.352;2023-12-20T14:33:23;22.05;25.81
76751;SHT31;65216;51.090;-115.352;2023-12-20T14:35:52;22.04;25.79
76751;SHT31;65216;51.090;-115.352;2023-12-20T14:38:21;22.06;25.75
76751;SHT31;65216;51.090;-115.352;2023-12-20T14:40:48;22.06;25.71
76751;SHT31;65216;51.090;-115.352;2023-12-20T14:43:16;22.06;25.70
76751;SHT31;65216;51.090;-115.352;2023-12-20T14:45:43;22.06;25.71
76751;SHT31;65216;51.090;-115.352;2023-12-20T14:48:12;22.06;25.70
76751;SHT31;65216;51.090;-115.352;2023-12-20T14:50:39;22.05;25.68
76751;SHT31;65216;51.090;-115.352;2023-12-20T14:53:08;22.06;25.68
76751;SHT31;65216;51.090;-115.352;2023-12-20T14:55:35;22.06;25.72
76751;SHT31;65216;51.090;-115.352;2023-12-20T14:58:02;22.07;25.66
76751;SHT31;65216;51.090;-115.352;2023-12-20T15:00:30;22.07;25.64
76751;SHT31;65216;51.090;-115.352;2023-12-20T15:02:57;22.08;25.64
76751;SHT31;65216;51.090;-115.352;2023-12-20T15:05:24;22.08;25.62
76751;SHT31;65216;51.090;-115.352;2023-12-20T15:07:52;22.08;25.63
76751;SHT31;65216;51.090;-115.352;2023-12-20T15:10:19;22.08;25.62
76751;SHT31;65216;51.090;-115.352;2023-12-20T15:12:46;22.05;25.64